createdAt,value
2023-03-10T00:01:22.037Z,9.13
2023-03-10T00:03:49.332Z,8.80
2023-03-10T00:06:18.685Z,8.73
2023-03-10T00:08:46.084Z,8.75
2023-03-10T00:11:14.110Z,9.95
2023-03-10T00:13:41.760Z,9.82
2023-03-10T00:16:21.388Z,9.13
2023-03-10T00:18:48.936Z,8.82
2023-03-10T00:21:18.317Z,7.75
2023-03-10T00:23:45.315Z,7.00
2023-03-10T00:26:14.156Z,6.63
2023-03-10T00:28:41.555Z,6.70
2023-03-10T00:31:12.121Z,7.53
2023-03-10T00:33:39.861Z,6.90
2023-03-10T00:36:07.108Z,6.82
2023-03-10T00:38:34.822Z,6.90
2023-03-10T00:41:04.433Z,6.88
2023-03-10T00:43:31.911Z,6.78
2023-03-10T00:45:58.951Z,5.95
2023-03-10T00:48:26.452Z,5.85
2023-03-10T00:50:53.871Z,5.40
2023-03-10T00:53:21.057Z,5.80
2023-03-10T00:56:02.393Z,5.70
2023-03-10T00:58:30.510Z,5.50
2023-03-10T01:00:58.253Z,6.07
2023-03-10T01:03:26.206Z,5.45
2023-03-10T01:05:54.218Z,5.50
2023-03-10T01:08:22.087Z,5.75
2023-03-10T01:10:50.099Z,5.43
2023-03-10T01:13:18.397Z,6.47
2023-03-10T01:15:47.964Z,6.18
2023-03-10T01:18:15.866Z,5.68
2023-03-10T01:20:43.101Z,6.07
2023-03-10T01:23:21.796Z,5.95
2023-03-10T01:25:50.410Z,6.90
2023-03-10T01:28:19.390Z,6.80
2023-03-10T01:30:46.782Z,6.80
2023-03-10T01:33:15.359Z,6.97
2023-03-10T01:35:42.508Z,6.03
2023-03-10T01:38:10.464Z,6.30
2023-03-10T01:40:38.501Z,6.03
2023-03-10T01:43:27.513Z,6.25
2023-03-10T01:45:54.891Z,6.13
2023-03-10T01:48:23.787Z,5.43
2023-03-10T01:50:54.410Z,5.40
2023-03-10T01:53:23.051Z,5.70
2023-03-10T01:55:57.077Z,5.60
2023-03-10T01:58:27.914Z,6.18
2023-03-10T02:00:54.950Z,5.05
2023-03-10T02:03:27.179Z,5.70
2023-03-10T02:05:58.749Z,5.68
2023-03-10T02:08:29.869Z,5.50
2023-03-10T02:10:57.907Z,5.50
2023-03-10T02:13:24.804Z,5.18
2023-03-10T02:15:51.964Z,5.43
2023-03-10T02:18:21.952Z,5.38
2023-03-10T02:21:24.022Z,5.22
2023-03-10T02:24:32.438Z,5.65
2023-03-10T02:27:20.140Z,5.30
2023-03-10T02:29:59.745Z,5.45
2023-03-10T02:32:34.898Z,5.22
2023-03-10T02:35:02.158Z,5.63
2023-03-10T02:37:33.669Z,5.32
2023-03-10T02:40:01.131Z,4.70
2023-03-10T02:42:33.893Z,4.72
2023-03-10T02:45:02.387Z,5.20
2023-03-10T02:47:29.387Z,4.53
2023-03-10T02:49:56.343Z,5.22
2023-03-10T02:52:41.137Z,4.50
2023-03-10T02:57:34.974Z,4.60
2023-03-10T03:00:02.580Z,4.50
2023-03-10T03:02:31.271Z,5.28
2023-03-10T03:04:58.305Z,4.95
2023-03-10T03:07:27.461Z,5.20
2023-03-10T03:09:54.731Z,5.00
2023-03-10T03:12:21.716Z,4.75
2023-03-10T03:14:49.026Z,4.60
2023-03-10T03:17:16.065Z,5.13
2023-03-10T03:19:43.042Z,4.68
2023-03-10T03:22:09.978Z,4.72
2023-03-10T03:24:36.888Z,4.53
2023-03-10T03:27:05.392Z,4.85
2023-03-10T03:29:32.418Z,4.80
2023-03-10T03:31:59.895Z,4.30
2023-03-10T03:34:30.665Z,4.88
2023-03-10T03:37:00.856Z,5.18
2023-03-10T03:39:33.130Z,4.55
2023-03-10T03:42:03.779Z,4.82
2023-03-10T03:47:05.413Z,5.10
2023-03-10T03:49:35.546Z,5.03
2023-03-10T03:52:03.627Z,5.32
2023-03-10T03:54:30.680Z,5.25
2023-03-10T03:56:58.395Z,5.63
2023-03-10T03:59:25.503Z,5.65
2023-03-10T04:01:52.663Z,5.53
2023-03-10T04:04:19.790Z,5.90
2023-03-10T04:06:46.647Z,5.55
2023-03-10T04:09:14.039Z,6.22
2023-03-10T04:11:41.157Z,6.13
2023-03-10T04:14:08.380Z,6.00
2023-03-10T04:16:35.398Z,5.75
2023-03-10T04:19:07.721Z,5.90
2023-03-10T04:21:37.502Z,6.03
2023-03-10T04:24:05.434Z,5.95
2023-03-10T04:26:33.161Z,6.78
2023-03-10T04:29:00.334Z,5.53
2023-03-10T04:31:30.155Z,6.50
2023-03-10T04:33:59.095Z,5.57
2023-03-10T04:36:26.161Z,5.65
2023-03-10T04:38:56.809Z,5.68
2023-03-10T04:41:29.012Z,6.25
2023-03-10T04:43:56.095Z,6.07
2023-03-10T04:46:23.312Z,5.95
2023-03-10T04:48:50.512Z,6.03
2023-03-10T04:51:17.547Z,6.20
2023-03-10T04:53:48.652Z,5.45
2023-03-10T04:56:15.695Z,5.25
2023-03-10T04:58:43.129Z,5.97
2023-03-10T05:01:12.691Z,5.88
2023-03-10T05:03:44.869Z,5.60
2023-03-10T05:06:21.641Z,4.55
2023-03-10T05:09:09.131Z,5.20
2023-03-10T05:11:36.028Z,5.28
2023-03-10T05:14:03.653Z,4.88
2023-03-10T05:16:31.806Z,4.70
2023-03-10T05:18:58.784Z,4.60
2023-03-10T05:21:28.791Z,4.38
2023-03-10T05:23:57.484Z,5.00
2023-03-10T05:26:25.272Z,4.22
2023-03-10T05:28:52.222Z,4.97
2023-03-10T05:31:26.651Z,5.53
2023-03-10T05:33:59.069Z,5.45
2023-03-10T05:36:26.222Z,4.47
2023-03-10T05:38:53.287Z,5.22
2023-03-10T05:41:20.659Z,5.15
2023-03-10T05:43:51.411Z,5.18
2023-03-10T05:46:19.486Z,5.65
2023-03-10T05:48:52.293Z,8.15
2023-03-10T05:51:19.691Z,7.63
2023-03-10T05:53:47.621Z,8.63
2023-03-10T05:56:20.523Z,9.68
2023-03-10T05:58:51.826Z,9.95
2023-03-10T06:01:22.534Z,9.82
2023-03-10T06:03:49.605Z,9.93
2023-03-10T06:06:16.678Z,8.60
2023-03-10T06:08:43.510Z,8.27
2023-03-10T06:11:10.478Z,8.27
2023-03-10T06:13:37.455Z,9.02
2023-03-10T06:16:06.047Z,9.57
2023-03-10T06:18:33.905Z,11.52
2023-03-10T06:21:04.106Z,12.60
2023-03-10T06:23:30.942Z,12.82
2023-03-10T06:26:07.023Z,12.45
2023-03-10T06:28:37.079Z,12.52
2023-03-10T06:31:07.439Z,13.07
2023-03-10T06:33:35.144Z,12.70
2023-03-10T06:36:02.407Z,12.93
2023-03-10T06:38:30.618Z,13.15
2023-03-10T06:40:58.389Z,12.27
2023-03-10T06:43:25.273Z,13.95
2023-03-10T06:45:52.336Z,15.07
2023-03-10T06:48:19.555Z,15.35
2023-03-10T06:50:49.738Z,16.23
2023-03-10T06:53:19.604Z,18.10
2023-03-10T06:56:04.655Z,17.42
2023-03-10T06:58:33.513Z,17.45
2023-03-10T07:01:00.511Z,16.77
2023-03-10T07:03:29.100Z,17.42
2023-03-10T07:06:02.096Z,18.23
2023-03-10T07:08:29.870Z,17.27
2023-03-10T07:10:57.159Z,18.02
2023-03-10T07:13:24.111Z,17.30
2023-03-10T07:15:51.120Z,16.90
2023-03-10T07:18:18.059Z,16.83
2023-03-10T07:20:45.984Z,16.58
2023-03-10T07:23:13.498Z,16.30
2023-03-10T07:39:55.547Z,18.98
2023-03-10T07:42:22.979Z,17.50
2023-03-10T07:44:50.136Z,17.98
2023-03-10T07:47:17.130Z,17.08
2023-03-10T07:49:47.019Z,17.65
2023-03-10T07:52:15.524Z,17.02
2023-03-10T07:54:44.399Z,17.23
2023-03-10T07:57:12.901Z,17.77
2023-03-10T07:59:40.538Z,18.42
2023-03-10T08:02:10.107Z,17.40
2023-03-10T08:04:37.069Z,17.45
2023-03-10T08:07:04.167Z,17.77
2023-03-10T08:09:31.049Z,17.83
2023-03-10T08:12:01.640Z,18.25
2023-03-10T08:14:29.948Z,17.00
2023-03-10T08:16:57.827Z,17.95
2023-03-10T08:19:26.136Z,18.13
2023-03-10T08:21:57.665Z,16.65
2023-03-10T08:24:25.600Z,18.38
2023-03-10T08:26:52.516Z,17.92
2023-03-10T08:29:19.425Z,17.92
2023-03-10T08:31:46.614Z,18.88
2023-03-10T08:34:14.201Z,19.25
2023-03-10T08:36:41.560Z,18.95
2023-03-10T08:39:08.958Z,18.30
2023-03-10T08:41:49.162Z,18.70
2023-03-10T08:44:18.981Z,19.35
2023-03-10T08:46:48.154Z,19.10
2023-03-10T08:49:16.938Z,18.50
2023-03-10T08:51:44.687Z,18.38
2023-03-10T08:54:13.915Z,18.38
2023-03-10T08:56:40.825Z,18.85
2023-03-10T08:59:07.864Z,17.83
2023-03-10T09:01:37.066Z,16.88
2023-03-10T09:04:06.231Z,16.80
2023-03-10T09:06:34.006Z,18.98
2023-03-10T09:09:01.518Z,16.75
2023-03-10T09:11:34.221Z,17.10
2023-03-10T09:14:02.081Z,17.73
2023-03-10T09:16:30.106Z,18.20
2023-03-10T09:18:58.220Z,17.70
2023-03-10T09:21:26.554Z,17.17
2023-03-10T09:23:53.518Z,17.30
2023-03-10T09:26:21.724Z,17.25
2023-03-10T09:28:50.929Z,17.15
2023-03-10T09:31:21.541Z,15.77
2023-03-10T09:33:49.311Z,16.65
2023-03-10T09:36:16.926Z,16.50
2023-03-10T09:38:44.187Z,18.80
2023-03-10T09:41:26.390Z,17.63
2023-03-10T09:44:05.071Z,17.05
2023-03-10T09:47:01.835Z,17.00
2023-03-10T09:49:31.565Z,17.52
2023-03-10T09:52:00.684Z,16.48
2023-03-10T09:54:39.513Z,18.00
2023-03-10T09:57:18.949Z,16.67
2023-03-10T09:59:48.840Z,16.23
2023-03-10T10:02:22.341Z,16.10
2023-03-10T10:04:54.449Z,17.15
2023-03-10T10:07:25.056Z,16.48
2023-03-10T10:10:09.312Z,16.48
2023-03-10T10:12:36.200Z,16.55
2023-03-10T10:15:24.405Z,17.15
2023-03-10T10:18:19.757Z,16.50
2023-03-10T10:20:59.171Z,16.50
2023-03-10T10:23:48.093Z,16.85
2023-03-10T10:26:17.902Z,16.30
2023-03-10T10:28:57.585Z,16.30
2023-03-10T10:31:33.390Z,18.42
2023-03-10T10:34:04.127Z,17.58
2023-03-10T10:36:48.772Z,27.15
2023-03-10T10:39:38.740Z,16.90
2023-03-10T10:42:25.933Z,16.02
2023-03-10T10:44:58.726Z,16.52
2023-03-10T10:47:34.637Z,16.42
2023-03-10T10:50:19.885Z,16.40
2023-03-10T10:52:50.589Z,16.50
2023-03-10T10:55:37.507Z,15.65
2023-03-10T10:58:07.328Z,16.30
2023-03-10T11:00:39.444Z,16.25
2023-03-10T11:03:34.696Z,16.52
2023-03-10T11:06:18.301Z,16.08
2023-03-10T11:08:51.434Z,16.00
2023-03-10T11:11:43.682Z,16.33
2023-03-10T11:14:16.611Z,16.55
2023-03-10T11:16:53.255Z,15.93
2023-03-10T11:19:41.288Z,16.33
2023-03-10T11:22:17.440Z,16.27
2023-03-10T11:24:58.217Z,15.88
2023-03-10T11:28:03.281Z,16.88
2023-03-10T11:30:40.586Z,16.38
2023-03-10T11:33:46.265Z,15.90
2023-03-10T11:36:55.533Z,16.45
2023-03-10T11:39:29.076Z,16.45
2023-03-10T11:42:13.269Z,16.23
2023-03-10T11:44:56.861Z,16.70
2023-03-10T11:47:32.001Z,16.25
2023-03-10T11:50:25.116Z,16.05
2023-03-10T11:52:57.357Z,15.98
2023-03-10T11:55:24.576Z,16.25
2023-03-10T11:57:56.485Z,15.98
2023-03-10T12:00:38.432Z,16.02
2023-03-10T12:03:11.300Z,16.35
2023-03-10T12:05:51.407Z,17.23
2023-03-10T12:08:21.277Z,16.75
2023-03-10T12:10:49.866Z,16.90
2023-03-10T12:13:27.065Z,16.60
2023-03-10T12:16:00.842Z,16.45
2023-03-10T12:18:28.562Z,16.70
2023-03-10T12:21:16.013Z,19.10
2023-03-10T12:23:52.198Z,17.42
2023-03-10T12:26:38.914Z,16.98
2023-03-10T12:29:21.117Z,17.05
2023-03-10T12:31:53.134Z,17.67
2023-03-10T12:34:29.340Z,17.75
2023-03-10T12:37:10.555Z,16.95
2023-03-10T12:39:40.206Z,16.40
2023-03-10T12:42:27.597Z,17.95
2023-03-10T12:45:38.373Z,17.25
2023-03-10T12:48:11.590Z,17.00
2023-03-10T12:50:52.901Z,17.10
2023-03-10T12:53:29.307Z,16.27
2023-03-10T12:56:14.542Z,15.82
2023-03-10T12:58:46.237Z,17.52
2023-03-10T13:01:17.330Z,15.68
2023-03-10T13:03:48.932Z,16.45
2023-03-10T13:06:18.849Z,15.88
2023-03-10T13:08:59.519Z,15.85
2023-03-10T13:11:31.155Z,16.25
2023-03-10T13:14:03.283Z,16.10
2023-03-10T13:16:31.249Z,16.60
2023-03-10T13:19:00.589Z,16.80
2023-03-10T13:21:37.273Z,15.60
2023-03-10T13:24:28.231Z,15.90
2023-03-10T13:27:13.321Z,15.27
2023-03-10T13:29:54.621Z,16.10
2023-03-10T13:32:21.823Z,16.30
2023-03-10T13:34:48.837Z,16.38
2023-03-10T13:37:15.702Z,16.45
2023-03-10T13:39:42.757Z,16.27
2023-03-10T13:42:40.845Z,16.27
2023-03-10T13:45:24.044Z,16.45
2023-03-10T13:47:52.063Z,15.90
2023-03-10T13:50:19.405Z,16.95
2023-03-10T13:52:57.428Z,16.30
2023-03-10T13:55:24.577Z,17.48
2023-03-10T13:57:51.966Z,17.10
2023-03-10T14:00:22.060Z,16.42
2023-03-10T14:02:51.145Z,15.82
2023-03-10T14:05:42.597Z,15.25
2023-03-10T14:08:32.927Z,15.80
2023-03-10T14:11:22.115Z,13.65
2023-03-10T14:13:49.424Z,14.43
2023-03-10T14:16:16.477Z,14.32
2023-03-10T14:18:43.744Z,13.70
2023-03-10T14:21:43.346Z,14.95
2023-03-10T14:24:19.488Z,16.77
2023-03-10T14:26:46.508Z,14.10
2023-03-10T14:29:16.992Z,14.43
2023-03-10T14:31:44.180Z,13.65
2023-03-10T14:34:15.123Z,13.50
2023-03-10T14:36:41.942Z,13.02
2023-03-10T14:39:09.551Z,11.70
2023-03-10T14:41:36.683Z,12.40
2023-03-10T14:44:03.944Z,11.50
2023-03-10T14:46:34.997Z,11.98
2023-03-10T14:49:02.195Z,11.07
2023-03-10T14:51:35.686Z,12.10
2023-03-10T14:56:31.642Z,10.82
2023-03-10T14:59:02.243Z,11.52
2023-03-10T15:01:29.721Z,10.65
2023-03-10T15:03:56.620Z,11.10
2023-03-10T15:06:24.062Z,11.98
2023-03-10T15:08:50.871Z,13.90
2023-03-10T15:11:27.108Z,10.95
2023-03-10T15:14:04.988Z,11.98
2023-03-10T15:16:31.799Z,10.55
2023-03-10T15:18:58.647Z,10.35
2023-03-10T15:21:25.509Z,11.18
2023-03-10T15:23:52.493Z,10.68
2023-03-10T15:26:19.341Z,10.60
2023-03-10T15:28:46.210Z,11.38
2023-03-10T15:31:13.213Z,9.95
2023-03-10T15:33:40.137Z,10.43
2023-03-10T15:36:07.374Z,10.98
2023-03-10T15:38:34.298Z,11.38
2023-03-10T15:41:01.249Z,10.70
2023-03-10T15:43:28.160Z,10.13
2023-03-10T15:45:55.084Z,9.45
2023-03-10T15:48:21.896Z,9.57
2023-03-10T15:50:48.804Z,9.52
2023-03-10T15:53:15.889Z,12.13
2023-03-10T15:55:42.955Z,8.05
2023-03-10T15:58:11.185Z,8.98
2023-03-10T16:00:38.468Z,9.35
2023-03-10T16:03:05.520Z,9.27
2023-03-10T16:05:32.749Z,10.35
2023-03-10T16:07:59.685Z,9.73
2023-03-10T16:10:28.099Z,9.75
2023-03-10T16:12:54.911Z,9.63
2023-03-10T16:15:21.741Z,10.88
2023-03-10T16:17:48.672Z,10.75
2023-03-10T16:20:19.116Z,11.52
2023-03-10T16:22:46.001Z,10.80
2023-03-10T16:25:15.503Z,10.13
2023-03-10T16:27:46.861Z,10.38
2023-03-10T16:30:16.374Z,10.07
2023-03-10T16:32:47.999Z,10.82
2023-03-10T16:35:16.616Z,10.60
2023-03-10T16:37:43.903Z,10.70
2023-03-10T16:40:11.338Z,11.13
2023-03-10T16:42:38.920Z,10.55
2023-03-10T16:45:07.121Z,12.18
2023-03-10T16:47:33.961Z,13.70
2023-03-10T16:50:01.000Z,11.45
2023-03-10T16:52:27.897Z,10.82
2023-03-10T16:54:58.788Z,11.95
2023-03-10T16:57:25.692Z,19.42
2023-03-10T16:59:52.616Z,14.88
2023-03-10T17:02:19.508Z,12.65
2023-03-10T17:04:46.533Z,12.65
2023-03-10T17:07:14.244Z,11.82
2023-03-10T17:09:41.291Z,11.13
2023-03-10T17:12:08.337Z,12.40
2023-03-10T17:14:35.331Z,11.82
2023-03-10T17:17:02.343Z,12.25
2023-03-10T17:19:30.305Z,11.05
2023-03-10T17:21:58.415Z,12.20
2023-03-10T17:24:26.652Z,11.07
2023-03-10T17:26:53.751Z,10.38
2023-03-10T17:29:21.022Z,11.65
2023-03-10T17:31:51.759Z,12.13
2023-03-10T17:34:19.831Z,7.50
2023-03-10T17:36:49.349Z,10.55
2023-03-10T17:39:19.319Z,10.02
2023-03-10T17:41:47.174Z,9.60
2023-03-10T17:44:14.669Z,9.75
2023-03-10T17:46:42.001Z,10.52
2023-03-10T17:49:12.466Z,9.75
2023-03-10T17:51:43.589Z,10.52
2023-03-10T17:54:16.588Z,8.35
2023-03-10T17:56:43.726Z,9.95
2023-03-10T17:59:16.300Z,8.73
2023-03-10T18:01:44.630Z,8.13
2023-03-10T18:04:11.827Z,8.50
2023-03-10T18:06:38.720Z,8.52
2023-03-10T18:09:08.236Z,9.05
2023-03-10T18:11:35.599Z,10.32
2023-03-10T18:14:03.952Z,9.35
2023-03-10T18:16:34.619Z,10.15
2023-03-10T18:19:02.054Z,8.65
2023-03-10T18:21:28.993Z,9.07
2023-03-10T18:23:56.221Z,9.77
2023-03-10T18:26:27.496Z,10.45
2023-03-10T18:28:54.362Z,11.15
2023-03-10T18:31:27.201Z,9.02
2023-03-10T18:33:55.142Z,9.80
2023-03-10T18:36:24.204Z,14.63
2023-03-10T18:38:52.766Z,10.70
2023-03-10T18:41:22.007Z,10.52
2023-03-10T18:43:49.121Z,10.40
2023-03-10T18:46:16.392Z,9.38
2023-03-10T18:48:43.320Z,9.48
2023-03-10T18:51:11.137Z,10.80
2023-03-10T18:53:39.375Z,11.02
2023-03-10T18:56:06.770Z,13.68
2023-03-10T18:58:33.756Z,14.05
2023-03-10T19:01:00.902Z,56.85
2023-03-10T19:03:29.737Z,8.52
2023-03-10T19:05:57.019Z,9.88
2023-03-10T19:08:24.836Z,9.90
2023-03-10T19:10:56.945Z,12.80
2023-03-10T19:13:27.518Z,9.30
2023-03-10T19:15:54.671Z,8.98
2023-03-10T19:18:22.308Z,11.48
2023-03-10T19:20:49.519Z,8.73
2023-03-10T19:23:16.857Z,8.07
2023-03-10T19:25:43.743Z,9.73
2023-03-10T19:41:50.112Z,9.05
2023-03-10T19:44:17.210Z,8.80
2023-03-10T19:46:44.155Z,7.90
2023-03-10T19:49:11.131Z,8.13
2023-03-10T19:51:37.972Z,8.07
2023-03-10T19:54:05.727Z,9.02
2023-03-10T19:56:32.564Z,7.60
2023-03-10T19:58:59.415Z,7.78
2023-03-10T20:01:26.955Z,8.23
2023-03-10T20:03:57.106Z,6.40
2023-03-10T20:06:24.343Z,5.97
2023-03-10T20:08:52.035Z,8.13
2023-03-10T20:11:19.837Z,9.85
2023-03-10T20:13:47.186Z,7.57
2023-03-10T20:16:15.562Z,6.90
2023-03-10T20:18:42.411Z,7.35
2023-03-10T20:21:09.328Z,9.45
2023-03-10T20:23:36.267Z,8.60
2023-03-10T20:26:06.408Z,7.43
2023-03-10T20:28:34.920Z,7.18
2023-03-10T20:31:02.077Z,8.40
2023-03-10T20:33:29.282Z,7.05
2023-03-10T20:35:56.144Z,7.68
2023-03-10T20:38:23.179Z,8.10
2023-03-10T20:40:50.029Z,7.15
2023-03-10T20:43:17.471Z,7.40
2023-03-10T20:45:44.804Z,6.78
2023-03-10T20:48:11.733Z,8.30
2023-03-10T20:50:39.292Z,7.20
2023-03-10T20:53:06.127Z,6.72
2023-03-10T20:55:33.092Z,7.43
2023-03-10T20:58:01.325Z,6.68
2023-03-10T21:00:30.068Z,6.95
2023-03-10T21:02:57.627Z,6.65
2023-03-10T21:05:26.920Z,6.78
2023-03-10T21:07:54.507Z,6.88
2023-03-10T21:10:22.221Z,7.13
2023-03-10T21:12:49.836Z,7.07
2023-03-10T21:15:17.442Z,6.78
2023-03-10T21:17:44.632Z,6.28
2023-03-10T21:20:16.087Z,6.05
2023-03-10T21:22:43.392Z,6.20
2023-03-10T21:25:21.031Z,5.65
2023-03-10T21:27:50.079Z,6.20
2023-03-10T21:30:19.218Z,6.85
2023-03-10T21:32:46.445Z,6.00
2023-03-10T21:35:13.927Z,6.18
2023-03-10T21:37:44.187Z,6.03
2023-03-10T21:40:15.063Z,7.10
2023-03-10T21:42:42.275Z,6.70
2023-03-10T21:45:11.744Z,7.30
2023-03-10T21:47:38.645Z,6.50
2023-03-10T21:50:05.966Z,6.63
2023-03-10T21:52:33.091Z,6.85
2023-03-10T21:55:00.220Z,6.45
2023-03-10T21:57:27.122Z,6.13
2023-03-10T21:59:53.947Z,6.10
2023-03-10T22:02:28.145Z,7.47
2023-03-10T22:07:22.842Z,6.63
2023-03-10T22:09:49.649Z,6.10
2023-03-10T22:12:18.583Z,5.90
2023-03-10T22:14:45.460Z,6.25
2023-03-10T22:17:12.277Z,6.00
2023-03-10T22:19:39.166Z,6.35
2023-03-10T22:22:06.048Z,6.13
2023-03-10T22:24:33.376Z,6.22
2023-03-10T22:27:00.248Z,8.25
2023-03-10T22:29:27.259Z,6.97
2023-03-10T22:31:56.277Z,6.85
2023-03-10T22:34:23.340Z,6.55
2023-03-10T22:36:50.183Z,6.70
2023-03-10T22:39:17.034Z,6.15
2023-03-10T22:41:44.000Z,7.72
2023-03-10T22:44:10.839Z,7.03
2023-03-10T22:46:37.775Z,6.82
2023-03-10T22:49:04.959Z,6.70
2023-03-10T22:51:31.797Z,6.80
2023-03-10T22:53:58.649Z,6.85
2023-03-10T22:56:25.556Z,6.90
2023-03-10T22:58:52.422Z,6.32
2023-03-10T23:01:19.600Z,6.93
2023-03-10T23:03:46.465Z,6.00
2023-03-10T23:06:13.967Z,6.43
2023-03-10T23:08:43.766Z,7.03
2023-03-10T23:11:11.379Z,7.13
2023-03-10T23:13:38.476Z,7.22
2023-03-10T23:16:06.052Z,6.43
2023-03-10T23:18:33.064Z,6.60
2023-03-10T23:21:00.696Z,6.53
2023-03-10T23:23:27.756Z,7.15
2023-03-10T23:25:54.618Z,7.25
2023-03-10T23:28:21.912Z,7.40
2023-03-10T23:30:50.012Z,7.32
2023-03-10T23:33:21.147Z,6.60
2023-03-10T23:35:54.353Z,7.72
2023-03-10T23:38:23.951Z,7.03
2023-03-10T23:40:51.804Z,6.88
2023-03-10T23:43:19.029Z,7.43
2023-03-10T23:45:46.293Z,7.13
2023-03-10T23:48:18.174Z,7.40
2023-03-10T23:50:47.332Z,7.35
2023-03-10T23:53:15.819Z,7.40
2023-03-10T23:55:45.035Z,6.90
2023-03-10T23:58:12.868Z,7.65
